createdAt,value
2022-12-11T00:01:32.833Z,19.05
2022-12-11T00:03:59.606Z,17.63
2022-12-11T00:06:26.700Z,16.90
2022-12-11T00:08:54.361Z,16.75
2022-12-11T00:11:21.522Z,18.05
2022-12-11T00:13:48.333Z,16.40
2022-12-11T00:16:15.307Z,17.60
2022-12-11T00:18:42.254Z,16.33
2022-12-11T00:21:11.502Z,18.10
2022-12-11T00:23:38.321Z,17.70
2022-12-11T00:26:07.038Z,16.27
2022-12-11T00:28:33.978Z,16.35
2022-12-11T00:31:06.923Z,15.82
2022-12-11T00:33:33.697Z,16.83
2022-12-11T00:36:00.418Z,16.52
2022-12-11T00:38:27.484Z,14.02
2022-12-11T00:40:58.625Z,14.25
2022-12-11T00:43:25.320Z,16.85
2022-12-11T00:45:52.180Z,14.80
2022-12-11T00:48:18.941Z,15.50
2022-12-11T00:50:45.629Z,14.02
2022-12-11T00:53:12.393Z,15.00
2022-12-11T00:55:40.309Z,15.48
2022-12-11T00:58:07.177Z,17.02
2022-12-11T01:00:34.084Z,15.50
2022-12-11T01:03:00.959Z,17.00
2022-12-11T01:05:27.819Z,15.80
2022-12-11T01:07:54.582Z,16.27
2022-12-11T01:10:24.455Z,14.48
2022-12-11T01:12:59.250Z,15.50
2022-12-11T01:15:28.467Z,14.52
2022-12-11T01:17:55.335Z,15.48
2022-12-11T01:20:22.633Z,14.80
2022-12-11T01:22:53.570Z,15.02
2022-12-11T01:25:20.324Z,14.50
2022-12-11T01:27:47.099Z,16.33
2022-12-11T01:30:14.451Z,14.00
2022-12-11T01:32:41.215Z,16.35
2022-12-11T01:35:08.502Z,14.57
2022-12-11T01:37:35.393Z,15.02
2022-12-11T01:40:02.211Z,15.18
2022-12-11T01:42:31.977Z,14.13
2022-12-11T01:45:27.394Z,13.55
2022-12-11T01:48:00.898Z,14.15
2022-12-11T01:50:28.462Z,14.40
2022-12-11T01:52:55.223Z,13.63
2022-12-11T01:55:22.069Z,13.52
2022-12-11T01:57:49.414Z,14.38
2022-12-11T02:00:16.591Z,14.82
2022-12-11T02:02:43.820Z,14.50
2022-12-11T02:05:10.875Z,13.63
2022-12-11T02:07:50.627Z,14.73
2022-12-11T02:10:17.556Z,12.18
2022-12-11T02:12:50.171Z,12.07
2022-12-11T02:15:41.070Z,12.80
2022-12-11T02:18:13.868Z,12.02
2022-12-11T02:21:05.590Z,12.88
2022-12-11T02:23:56.253Z,13.88
2022-12-11T02:26:36.866Z,12.07
2022-12-11T02:29:07.081Z,12.80
2022-12-11T02:31:39.983Z,13.32
2022-12-11T02:34:20.727Z,12.77
2022-12-11T02:36:51.622Z,12.93
2022-12-11T02:39:18.368Z,10.77
2022-12-11T02:41:47.990Z,9.50
2022-12-11T02:44:15.151Z,11.82
2022-12-11T02:46:41.981Z,10.38
2022-12-11T02:49:08.673Z,11.70
2022-12-11T02:51:38.491Z,12.20
2022-12-11T02:54:05.976Z,10.60
2022-12-11T02:56:42.450Z,11.95
2022-12-11T02:59:17.189Z,10.80
2022-12-11T03:01:44.009Z,10.60
2022-12-11T03:04:10.787Z,12.00
2022-12-11T03:06:46.722Z,9.88
2022-12-11T03:09:13.498Z,10.68
2022-12-11T03:11:40.208Z,10.68
2022-12-11T03:14:06.988Z,11.02
2022-12-11T03:16:37.202Z,9.38
2022-12-11T03:19:21.814Z,11.10
2022-12-11T03:21:58.147Z,10.43
2022-12-11T03:24:39.740Z,10.13
2022-12-11T03:27:32.173Z,10.85
2022-12-11T03:30:01.434Z,9.75
2022-12-11T03:32:29.952Z,10.63
2022-12-11T03:35:17.334Z,10.10
2022-12-11T03:37:44.023Z,9.27
2022-12-11T03:40:12.601Z,11.65
2022-12-11T03:42:39.585Z,10.00
2022-12-11T03:45:06.869Z,10.63
2022-12-11T03:47:33.632Z,9.88
2022-12-11T03:50:00.357Z,9.90
2022-12-11T03:52:27.624Z,9.32
2022-12-11T03:54:54.781Z,10.38
2022-12-11T03:57:22.541Z,10.35
2022-12-11T03:59:49.745Z,10.40
2022-12-11T04:02:16.498Z,9.75
2022-12-11T04:04:43.696Z,9.70
2022-12-11T04:07:10.428Z,8.77
2022-12-11T04:09:37.605Z,8.98
2022-12-11T04:12:04.441Z,10.27
2022-12-11T04:14:49.552Z,9.13
2022-12-11T04:17:36.251Z,7.72
2022-12-11T04:20:22.513Z,8.95
2022-12-11T04:23:08.050Z,9.25
2022-12-11T04:25:34.860Z,7.22
2022-12-11T04:28:01.587Z,10.18
2022-12-11T04:30:33.909Z,9.82
2022-12-11T04:33:01.234Z,9.95
2022-12-11T04:35:28.077Z,9.48
2022-12-11T04:37:54.794Z,10.18
2022-12-11T04:40:21.674Z,9.30
2022-12-11T04:42:48.450Z,9.23
2022-12-11T04:45:15.199Z,9.85
2022-12-11T04:47:42.042Z,8.23
2022-12-11T04:50:10.088Z,9.77
2022-12-11T04:52:36.848Z,9.48
2022-12-11T04:55:05.622Z,8.65
2022-12-11T04:57:32.389Z,8.38
2022-12-11T04:59:59.992Z,8.13
2022-12-11T05:02:26.936Z,8.57
2022-12-11T05:04:53.770Z,8.00
2022-12-11T05:07:20.505Z,7.78
2022-12-11T05:09:47.299Z,8.75
2022-12-11T05:12:14.018Z,8.30
2022-12-11T05:14:40.834Z,8.35
2022-12-11T05:17:07.568Z,7.68
2022-12-11T05:19:34.285Z,8.57
2022-12-11T05:22:01.068Z,7.93
2022-12-11T05:24:27.795Z,8.32
2022-12-11T05:26:54.497Z,7.55
2022-12-11T05:29:21.226Z,8.95
2022-12-11T05:31:47.948Z,8.13
2022-12-11T05:34:15.948Z,6.93
2022-12-11T05:36:42.632Z,8.23
2022-12-11T05:39:10.592Z,8.63
2022-12-11T05:41:37.315Z,7.90
2022-12-11T05:44:04.173Z,7.90
2022-12-11T05:46:31.244Z,7.82
2022-12-11T05:48:59.495Z,7.72
2022-12-11T05:51:26.549Z,7.30
2022-12-11T05:53:53.520Z,7.15
2022-12-11T05:56:26.197Z,8.40
2022-12-11T05:58:53.001Z,7.78
2022-12-11T06:01:24.969Z,7.25
2022-12-11T06:03:51.957Z,7.80
2022-12-11T06:06:18.742Z,7.93
2022-12-11T06:08:45.549Z,8.48
2022-12-11T06:11:14.127Z,8.65
2022-12-11T06:13:40.894Z,7.20
2022-12-11T06:16:08.392Z,7.18
2022-12-11T06:18:39.123Z,7.35
2022-12-11T06:21:23.325Z,7.97
2022-12-11T06:23:51.393Z,7.93
2022-12-11T06:26:19.030Z,7.85
2022-12-11T06:28:46.156Z,7.88
2022-12-11T06:31:13.099Z,7.30
2022-12-11T06:33:42.452Z,9.27
2022-12-11T06:36:14.512Z,9.15
2022-12-11T06:38:41.264Z,8.10
2022-12-11T06:41:08.286Z,7.72
2022-12-11T06:43:35.933Z,6.82
2022-12-11T06:46:09.704Z,7.05
2022-12-11T06:48:36.471Z,7.25
2022-12-11T06:51:11.138Z,6.90
2022-12-11T06:53:38.124Z,7.50
2022-12-11T06:56:12.634Z,7.10
2022-12-11T06:58:39.562Z,6.93
2022-12-11T07:01:19.183Z,7.28
2022-12-11T07:03:46.017Z,7.35
2022-12-11T07:06:13.000Z,7.10
2022-12-11T07:08:39.827Z,7.75
2022-12-11T07:11:07.811Z,8.20
2022-12-11T07:13:34.649Z,8.05
2022-12-11T07:16:02.003Z,7.95
2022-12-11T07:18:28.840Z,8.15
2022-12-11T07:20:57.415Z,7.97
2022-12-11T07:23:24.201Z,8.43
2022-12-11T07:25:51.057Z,8.05
2022-12-11T07:28:17.737Z,8.15
2022-12-11T07:30:44.634Z,8.50
2022-12-11T07:33:11.401Z,10.00
2022-12-11T07:35:38.214Z,10.90
2022-12-11T07:38:05.014Z,10.73
2022-12-11T07:40:31.739Z,10.02
2022-12-11T07:42:58.485Z,11.20
2022-12-11T07:45:26.392Z,11.45
2022-12-11T07:47:53.100Z,10.27
2022-12-11T07:50:20.111Z,11.25
2022-12-11T07:52:46.830Z,11.48
2022-12-11T07:55:13.746Z,9.27
2022-12-11T07:57:40.664Z,10.35
2022-12-11T08:00:07.934Z,10.38
2022-12-11T08:02:37.364Z,10.52
2022-12-11T08:05:04.848Z,9.63
2022-12-11T08:07:33.529Z,9.10
2022-12-11T08:10:00.252Z,10.25
2022-12-11T08:12:26.920Z,11.88
2022-12-11T08:14:53.664Z,12.50
2022-12-11T08:17:24.500Z,12.20
2022-12-11T08:19:54.200Z,12.45
2022-12-11T08:22:21.039Z,11.45
2022-12-11T08:24:47.810Z,12.80
2022-12-11T08:27:14.562Z,12.30
2022-12-11T08:29:41.369Z,13.23
2022-12-11T08:32:12.283Z,11.70
2022-12-11T08:34:40.045Z,11.38
2022-12-11T08:37:06.791Z,13.20
2022-12-11T08:39:33.577Z,10.50
2022-12-11T08:42:00.274Z,9.52
2022-12-11T08:44:28.070Z,9.70
2022-12-11T08:46:54.821Z,10.15
2022-12-11T08:49:21.555Z,8.98
2022-12-11T08:51:48.266Z,10.05
2022-12-11T08:54:14.948Z,8.27
2022-12-11T08:56:41.670Z,8.77
2022-12-11T08:59:08.575Z,8.63
2022-12-11T09:01:35.325Z,9.88
2022-12-11T09:04:02.178Z,7.60
2022-12-11T09:06:29.429Z,8.75
2022-12-11T09:08:56.419Z,9.40
2022-12-11T09:11:30.508Z,8.82
2022-12-11T09:16:29.043Z,8.90
2022-12-11T09:18:57.136Z,10.55
2022-12-11T09:21:25.431Z,9.60
2022-12-11T09:23:56.007Z,9.23
2022-12-11T09:26:22.995Z,8.32
2022-12-11T09:28:53.112Z,9.32
2022-12-11T09:31:23.561Z,8.05
2022-12-11T09:33:52.049Z,9.82
2022-12-11T09:36:19.026Z,8.63
2022-12-11T09:38:46.081Z,8.75
2022-12-11T09:41:56.190Z,8.40
2022-12-11T09:44:40.012Z,10.23
2022-12-11T09:47:35.737Z,9.25
2022-12-11T09:50:14.067Z,8.85
2022-12-11T09:52:51.113Z,9.63
2022-12-11T09:55:24.243Z,9.77
2022-12-11T09:57:57.816Z,10.27
2022-12-11T10:00:43.921Z,11.45
2022-12-11T10:03:25.966Z,10.35
2022-12-11T10:06:05.279Z,9.57
2022-12-11T10:08:47.806Z,10.07
2022-12-11T10:11:32.933Z,10.45
2022-12-11T10:14:02.477Z,12.32
2022-12-11T10:16:49.308Z,8.85
2022-12-11T10:19:29.918Z,9.35
2022-12-11T10:21:56.832Z,11.60
2022-12-11T10:27:28.611Z,10.13
2022-12-11T10:30:05.778Z,10.55
2022-12-11T10:32:58.467Z,10.15
2022-12-11T10:35:28.184Z,9.63
2022-12-11T10:38:20.729Z,10.15
2022-12-11T10:40:52.681Z,9.95
2022-12-11T10:43:19.471Z,12.05
2022-12-11T10:45:55.284Z,12.13
2022-12-11T10:48:22.323Z,13.02
2022-12-11T10:51:03.600Z,12.25
2022-12-11T10:53:30.874Z,12.30
2022-12-11T10:55:58.626Z,11.27
2022-12-11T10:58:34.287Z,12.95
2022-12-11T11:01:06.418Z,10.57
2022-12-11T11:03:33.454Z,13.15
2022-12-11T11:06:20.112Z,13.10
2022-12-11T11:08:49.457Z,13.23
2022-12-11T11:11:36.956Z,12.55
2022-12-11T11:14:20.635Z,13.48
2022-12-11T11:16:48.829Z,15.80
2022-12-11T11:19:23.278Z,14.68
2022-12-11T11:21:55.060Z,14.38
2022-12-11T11:24:33.148Z,13.77
2022-12-11T11:27:15.226Z,14.38
2022-12-11T11:29:42.074Z,14.65
2022-12-11T11:32:16.723Z,15.77
2022-12-11T11:34:43.483Z,15.13
2022-12-11T11:37:24.989Z,14.82
2022-12-11T11:39:53.083Z,15.63
2022-12-11T11:42:37.271Z,17.25
2022-12-11T11:45:09.940Z,14.30
2022-12-11T11:47:43.317Z,16.85
2022-12-11T11:50:16.377Z,15.88
2022-12-11T11:52:52.952Z,16.27
2022-12-11T11:55:37.784Z,14.70
2022-12-11T11:58:12.887Z,13.85
2022-12-11T12:00:39.613Z,15.02
2022-12-11T12:03:11.223Z,15.07
2022-12-11T12:05:56.891Z,15.20
2022-12-11T12:08:42.016Z,16.52
2022-12-11T12:11:37.701Z,15.32
2022-12-11T12:14:43.580Z,16.15
2022-12-11T12:17:27.008Z,14.60
2022-12-11T12:20:06.580Z,13.02
2022-12-11T12:22:53.649Z,12.20
2022-12-11T12:25:37.130Z,13.13
2022-12-11T12:28:16.003Z,12.27
2022-12-11T12:30:55.314Z,13.07
2022-12-11T12:33:39.258Z,13.45
2022-12-11T12:36:08.777Z,14.45
2022-12-11T12:39:01.271Z,11.88
2022-12-11T12:41:55.333Z,13.57
2022-12-11T12:44:22.875Z,14.25
2022-12-11T12:47:09.766Z,13.63
2022-12-11T12:49:41.845Z,14.35
2022-12-11T12:52:21.519Z,15.30
2022-12-11T12:55:09.722Z,14.23
2022-12-11T12:57:36.886Z,13.57
2022-12-11T13:00:11.081Z,13.55
2022-12-11T13:02:49.358Z,13.70
2022-12-11T13:05:27.052Z,22.92
2022-12-11T13:07:59.266Z,18.10
2022-12-11T13:10:26.267Z,15.48
2022-12-11T13:12:53.086Z,14.95
2022-12-11T13:15:40.808Z,15.88
2022-12-11T13:18:37.005Z,12.80
2022-12-11T13:21:23.724Z,13.07
2022-12-11T13:23:50.493Z,13.15
2022-12-11T13:26:30.958Z,14.98
2022-12-11T13:28:58.260Z,15.82
2022-12-11T13:31:36.510Z,11.88
2022-12-11T13:34:15.941Z,14.68
2022-12-11T13:36:47.044Z,13.07
2022-12-11T13:39:37.238Z,12.90
2022-12-11T13:42:11.876Z,11.65
2022-12-11T13:44:41.255Z,16.15
2022-12-11T13:47:12.456Z,13.40
2022-12-11T13:49:40.838Z,13.95
2022-12-11T13:52:07.842Z,14.82
2022-12-11T13:54:36.409Z,16.02
2022-12-11T13:57:09.257Z,16.02
2022-12-11T13:59:37.775Z,15.30
2022-12-11T14:02:26.063Z,15.20
2022-12-11T14:05:01.044Z,13.95
2022-12-11T14:07:41.751Z,14.13
2022-12-11T14:10:14.592Z,14.70
2022-12-11T14:12:58.532Z,14.98
2022-12-11T14:15:26.100Z,15.38
2022-12-11T14:17:52.937Z,14.82
2022-12-11T14:20:22.780Z,14.75
2022-12-11T14:22:49.559Z,17.10
2022-12-11T14:25:24.917Z,16.08
2022-12-11T14:27:55.687Z,16.00
2022-12-11T14:30:27.475Z,16.85
2022-12-11T14:32:59.018Z,16.95
2022-12-11T14:35:38.586Z,18.70
2022-12-11T14:38:26.526Z,17.17
2022-12-11T14:40:56.483Z,17.60
2022-12-11T14:43:35.748Z,17.27
2022-12-11T14:46:10.308Z,16.73
2022-12-11T14:48:53.852Z,18.48
2022-12-11T14:51:24.417Z,17.15
2022-12-11T14:53:51.703Z,15.48
2022-12-11T14:56:25.994Z,18.08
2022-12-11T14:59:03.134Z,17.55
2022-12-11T15:01:33.253Z,16.33
2022-12-11T15:04:14.828Z,15.90
2022-12-11T15:06:46.069Z,15.82
2022-12-11T15:09:19.706Z,18.55
2022-12-11T15:11:47.163Z,18.25
2022-12-11T15:14:14.162Z,18.05
2022-12-11T15:16:41.644Z,17.80
2022-12-11T15:19:14.794Z,18.33
2022-12-11T15:21:41.539Z,18.55
2022-12-11T15:24:25.973Z,21.70
2022-12-11T15:29:25.391Z,18.27
2022-12-11T15:32:10.032Z,18.15
2022-12-11T15:34:43.128Z,18.48
2022-12-11T15:37:27.250Z,17.67
2022-12-11T15:39:54.990Z,19.50
2022-12-11T15:42:28.918Z,20.23
2022-12-11T15:44:55.670Z,18.33
2022-12-11T15:47:25.954Z,18.08
2022-12-11T15:50:00.296Z,19.75
2022-12-11T15:52:27.055Z,18.92
2022-12-11T15:54:53.918Z,18.85
2022-12-11T15:57:21.665Z,20.10
2022-12-11T15:59:49.013Z,18.73
2022-12-11T16:02:15.822Z,18.00
2022-12-11T16:04:42.635Z,20.70
2022-12-11T16:07:17.419Z,19.67
2022-12-11T16:09:44.952Z,19.20
2022-12-11T16:12:12.030Z,19.63
2022-12-11T16:14:39.226Z,19.48
2022-12-11T16:17:09.778Z,19.10
2022-12-11T16:19:37.654Z,17.92
2022-12-11T16:22:04.645Z,17.90
2022-12-11T16:24:31.774Z,19.60
2022-12-11T16:26:58.485Z,18.15
2022-12-11T16:29:25.252Z,22.05
2022-12-11T16:31:52.025Z,19.67
2022-12-11T16:34:18.853Z,19.90
2022-12-11T16:36:45.604Z,18.15
2022-12-11T16:39:13.164Z,20.08
2022-12-11T16:41:40.248Z,23.15
2022-12-11T16:44:10.813Z,21.55
2022-12-11T16:46:37.585Z,19.92
2022-12-11T16:49:07.361Z,22.63
2022-12-11T16:51:35.897Z,21.88
2022-12-11T16:54:03.409Z,21.58
2022-12-11T16:56:33.256Z,24.70
2022-12-11T16:59:01.427Z,23.20
2022-12-11T17:01:28.468Z,21.75
2022-12-11T17:03:55.326Z,21.98
2022-12-11T17:06:24.666Z,23.33
2022-12-11T17:08:51.509Z,21.95
2022-12-11T17:11:20.389Z,22.90
2022-12-11T17:13:47.302Z,23.60
2022-12-11T17:16:15.683Z,21.95
2022-12-11T17:18:42.815Z,21.48
2022-12-11T17:21:14.128Z,22.38
2022-12-11T17:23:41.169Z,23.67
2022-12-11T17:26:10.879Z,23.27
2022-12-11T17:28:37.773Z,24.48
2022-12-11T17:31:05.597Z,26.00
2022-12-11T17:33:32.385Z,25.27
2022-12-11T17:36:05.779Z,25.83
2022-12-11T17:38:32.624Z,25.30
2022-12-11T17:40:59.397Z,30.98
2022-12-11T17:43:26.455Z,27.98
2022-12-11T17:45:53.296Z,27.70
2022-12-11T17:48:22.568Z,25.98
2022-12-11T17:50:49.924Z,25.02
2022-12-11T17:53:17.168Z,21.08
2022-12-11T17:55:44.306Z,24.48
2022-12-11T17:58:18.839Z,21.92
2022-12-11T18:00:46.908Z,24.52
2022-12-11T18:03:14.003Z,22.88
2022-12-11T18:05:45.307Z,21.15
2022-12-11T18:08:16.692Z,21.63
2022-12-11T18:10:43.677Z,23.58
2022-12-11T18:13:10.516Z,20.20
2022-12-11T18:15:37.671Z,21.35
2022-12-11T18:18:05.400Z,21.42
2022-12-11T18:20:32.725Z,22.50
2022-12-11T18:22:59.816Z,19.67
2022-12-11T18:25:26.710Z,21.85
2022-12-11T18:27:55.170Z,21.42
2022-12-11T18:30:22.865Z,20.13
2022-12-11T18:32:49.966Z,22.90
2022-12-11T18:35:16.994Z,23.55
2022-12-11T18:37:43.925Z,27.65
2022-12-11T18:40:12.017Z,22.75
2022-12-11T18:42:38.880Z,23.10
2022-12-11T18:45:06.982Z,21.70
2022-12-11T18:47:33.728Z,21.92
2022-12-11T18:50:07.092Z,21.20
2022-12-11T18:52:34.407Z,21.83
2022-12-11T18:55:01.140Z,23.98
2022-12-11T18:57:27.949Z,23.80
2022-12-11T18:59:54.696Z,21.10
2022-12-11T19:02:21.562Z,20.13
2022-12-11T19:04:48.644Z,20.48
2022-12-11T19:07:15.459Z,21.65
2022-12-11T19:09:47.567Z,21.48
2022-12-11T19:12:15.002Z,21.58
2022-12-11T19:14:41.849Z,20.38
2022-12-11T19:17:08.624Z,20.92
2022-12-11T19:19:35.974Z,21.95
2022-12-11T19:22:02.816Z,20.50
2022-12-11T19:24:29.623Z,21.15
2022-12-11T19:26:56.387Z,19.58
2022-12-11T19:29:27.893Z,19.65
2022-12-11T19:31:55.639Z,18.55
2022-12-11T19:34:22.762Z,17.20
2022-12-11T19:36:49.651Z,19.60
2022-12-11T19:39:16.461Z,19.55
2022-12-11T19:41:43.337Z,16.77
2022-12-11T19:44:10.281Z,17.10
2022-12-11T19:46:37.234Z,17.98
2022-12-11T19:49:04.096Z,16.52
2022-12-11T19:51:38.327Z,16.83
2022-12-11T19:54:06.665Z,18.23
2022-12-11T19:56:34.352Z,16.98
2022-12-11T19:59:05.189Z,17.75
2022-12-11T20:01:32.938Z,15.77
2022-12-11T20:04:05.047Z,14.13
2022-12-11T20:06:32.571Z,15.13
2022-12-11T20:08:59.775Z,14.38
2022-12-11T20:11:26.605Z,16.17
2022-12-11T20:13:55.510Z,15.88
2022-12-11T20:16:39.524Z,14.15
2022-12-11T20:19:09.265Z,13.60
2022-12-11T20:21:35.970Z,15.38
2022-12-11T20:24:02.735Z,16.10
2022-12-11T20:26:31.884Z,16.67
2022-12-11T20:28:58.763Z,14.82
2022-12-11T20:31:25.883Z,26.35
2022-12-11T20:33:53.366Z,14.32
2022-12-11T20:36:20.922Z,16.42
2022-12-11T20:38:48.027Z,14.55
2022-12-11T20:41:16.292Z,13.63
2022-12-11T20:43:44.098Z,15.02
2022-12-11T20:46:12.354Z,14.30
2022-12-11T20:48:39.397Z,11.95
2022-12-11T20:51:07.106Z,12.88
2022-12-11T20:53:35.004Z,12.30
2022-12-11T20:56:02.085Z,13.45
2022-12-11T20:58:28.919Z,13.18
2022-12-11T21:00:55.822Z,12.68
2022-12-11T21:03:22.716Z,12.20
2022-12-11T21:05:49.453Z,12.90
2022-12-11T21:08:16.248Z,12.00
2022-12-11T21:10:43.857Z,12.13
2022-12-11T21:13:10.741Z,12.48
2022-12-11T21:15:38.334Z,12.73
2022-12-11T21:18:05.921Z,16.90
2022-12-11T21:20:32.813Z,12.30
2022-12-11T21:22:59.571Z,14.45
2022-12-11T21:25:26.426Z,11.35
2022-12-11T21:27:53.184Z,12.48
2022-12-11T21:30:20.033Z,12.18
2022-12-11T21:32:47.551Z,12.98
2022-12-11T21:35:14.660Z,12.68
2022-12-11T21:37:41.925Z,12.95
2022-12-11T21:40:09.406Z,12.10
2022-12-11T21:42:36.146Z,13.52
2022-12-11T21:47:50.398Z,12.35
2022-12-11T21:50:17.491Z,13.13
2022-12-11T21:52:44.289Z,12.50
2022-12-11T21:55:11.786Z,12.65
2022-12-11T21:57:38.694Z,13.45
2022-12-11T22:00:06.078Z,11.18
2022-12-11T22:02:36.066Z,13.85
2022-12-11T22:05:07.833Z,13.10
2022-12-11T22:07:34.594Z,13.25
2022-12-11T22:10:01.334Z,14.43
2022-12-11T22:12:28.302Z,13.93
2022-12-11T22:14:55.389Z,12.63
2022-12-11T22:17:22.290Z,14.10
2022-12-11T22:19:49.201Z,14.30
2022-12-11T22:22:15.944Z,13.80
2022-12-11T22:24:42.696Z,12.55
2022-12-11T22:27:09.438Z,13.57
2022-12-11T22:29:36.194Z,13.52
2022-12-11T22:32:03.618Z,13.25
2022-12-11T22:34:30.465Z,12.75
2022-12-11T22:36:57.140Z,12.13
2022-12-11T22:39:24.741Z,11.20
2022-12-11T22:41:51.509Z,11.65
2022-12-11T22:44:19.487Z,10.88
2022-12-11T22:46:49.952Z,10.88
2022-12-11T22:49:18.747Z,9.85
2022-12-11T22:51:45.519Z,10.13
2022-12-11T22:54:12.346Z,9.55
2022-12-11T22:56:39.053Z,9.65
2022-12-11T22:59:07.480Z,10.13
2022-12-11T23:01:34.530Z,9.82
2022-12-11T23:04:01.392Z,9.57
2022-12-11T23:06:30.990Z,8.73
2022-12-11T23:08:58.934Z,8.93
2022-12-11T23:11:30.889Z,7.93
2022-12-11T23:14:00.762Z,7.88
2022-12-11T23:16:28.056Z,7.70
2022-12-11T23:18:55.524Z,8.13
2022-12-11T23:21:22.675Z,8.55
2022-12-11T23:23:49.418Z,7.35
2022-12-11T23:26:16.510Z,6.65
2022-12-11T23:28:43.234Z,6.85
2022-12-11T23:31:10.090Z,6.78
2022-12-11T23:33:37.050Z,5.85
2022-12-11T23:36:04.357Z,7.05
2022-12-11T23:38:31.199Z,6.35
2022-12-11T23:40:59.474Z,6.53
2022-12-11T23:43:26.226Z,6.20
2022-12-11T23:45:52.998Z,7.30
2022-12-11T23:48:19.840Z,5.60
2022-12-11T23:50:46.814Z,6.20
2022-12-11T23:53:13.602Z,5.63
2022-12-11T23:55:41.425Z,5.53
2022-12-11T23:58:08.219Z,5.68
